• Join FlightAware (Why Join?)
  • Login
  • US Flag 
02:38AM EDT


 

Airport Tracker/Info


-or-


 

Live Flight TrackerFlight Track Log ✈ UPS2292 ✈ 24-Apr-2014 ✈ KMCO - KCAE

Flight Track Log - Related Links

Times and Time Zones

All times are in EDT time to prevent confusion due to time zone crossing. See the UPS2292 flight status page for this flight to view local times or setup timezone preferences in your user account.

Time Position Orientation Groundspeed Altitude Reporting Facility
EDT Latitude Longitude Course Direction KTS MPH feet Rate Location/Type
04:59PM 28.4062 -81.2979 133° Southeast 201 231 3,300  Level FlightAware ADS-B (KMCO)
04:59PM 28.3933 -81.2827 133° Southeast 229 264 4,400 2,460 Climbing FlightAware ADS-B (KMCO)
05:00PM 28.3769 -81.2627 133° Southeast 255 293 4,900 900 Climbing FlightAware ADS-B (KMCO)
05:00PM 28.3591 -81.2478 161° South 264 304 5,000 300 Climbing FlightAware ADS-B (KMCO)
05:01PM 28.3093 -81.2331 144° Southeast 281 323 5,200 1,800 Climbing FlightAware ADS-B (KMCO)
05:01PM 28.2948 -81.2104 111° Southeast 287 330 6,800 3,780 Climbing FlightAware ADS-B (KMCO)
05:01PM 28.2910 -81.1776 86° East 306 352 7,800 3,060 Climbing FlightAware ADS-B (KMCO)
05:02PM 28.3210 -81.1283 25° Northeast 309 356 9,900 3,900 Climbing FlightAware ADS-B (KMCO)
05:02PM 28.3503 -81.1228 356° North 308 354 11,700 5,100 Climbing FlightAware ADS-B (KMCO)
05:03PM 28.3777 -81.1299 345° North 316 364 13,400 3,900 Climbing FlightAware ADS-B (KMCO)
05:03PM 28.4096 -81.1406 343° North 341 392 14,400 2,940 Climbing FlightAware ADS-B (KSFB)
05:04PM 28.4536 -81.1567 342° North 352 405 15,900 2,640 Climbing FlightAware ADS-B (KSFB)
05:04PM 28.5051 -81.1755 342° North 384 442 17,100 3,000 Climbing FlightAware ADS-B (KSFB)
05:05PM 28.5559 -81.1936 343° North 395 455 19,000 3,900 Climbing FlightAware ADS-B (KSFB)
05:05PM 28.6121 -81.2136 343° North 406 467 21,000 3,540 Climbing FlightAware ADS-B (KSFB)
05:06PM 28.6768 -81.2366 342° North 423 487 23,000 3,480 Climbing FlightAware ADS-B (KMCO)
05:06PM 28.7320 -81.2564 342° North 432 497 25,000 3,840 Climbing FlightAware ADS-B (KSFB)
05:07PM 28.7972 -81.2798 343° North 429 494 27,000 3,240 Climbing FlightAware ADS-B (KSFB)
05:07PM 28.8608 -81.3027 342° North 436 502 28,600 2,460 Climbing FlightAware ADS-B (KSFB)
05:08PM 28.9311 -81.3282 342° North 450 518 29,900 1,860 Climbing FlightAware ADS-B (KSFB)
05:09PM 29.0075 -81.3558 342° North 462 532 30,900 900 Climbing FlightAware ADS-B (KSFB)
05:09PM 29.0690 -81.3770 346° North 472 543 31,000 60 Climbing FlightAware ADS-B (KMCO)
05:10PM 29.1591 -81.3959 354° North 478 550 31,000  Level FlightAware ADS-B (KMCO)
05:10PM 29.2429 -81.4035 356° North 483 556 31,000  Level FlightAware ADS-B (KMCO)
05:11PM 29.3365 -81.4120 355° North 484 557 31,000  Level FlightAware ADS-B (KMCO)
05:12PM 29.4233 -81.4204 355° North 481 554 31,000  Level FlightAware ADS-B (KMCO)
05:12PM 29.5091 -81.4287 355° North 480 552 31,000  Level FlightAware ADS-B (KMCO)
05:13PM 29.6020 -81.4377 355° North 479 551 31,000  Level FlightAware ADS-B (KMCO)
05:14PM 29.6917 -81.4465 355° North 475 547 31,000  Level FlightAware ADS-B (KMCO)
05:14PM 29.7641 -81.4536 355° North 477 549 31,000  Level FlightAware ADS-B (KMCO)
05:15PM 29.8498 -81.4621 355° North 480 552 31,000  Level FlightAware ADS-B (KMCO)
05:16PM 29.9508 -81.4720 355° North 481 554 31,000  Level FlightAware ADS-B (KMCO)
05:16PM 30.0348 -81.4802 355° North 481 554 31,000  Level FlightAware ADS-B (KMCO)
05:17PM 30.0833 -81.4883 355° North 480 552 31,000  Level Jacksonville Center
05:18PM 30.2172 -81.4983 356° North 480 552 31,000  Level Jacksonville Center
05:19PM 30.3508 -81.5086 356° North 480 552 31,000 -60 Level Jacksonville Center
05:20PM 30.4989 -81.4894 North 480 552 30,900  Descending Jacksonville Center
05:21PM 30.6344 -81.4731 North 480 552 31,000  Climbing Jacksonville Center
05:22PM 30.7719 -81.4564 North 485 558 31,000 -60 Level Jacksonville Center
05:23PM 30.9075 -81.4397 North 485 558 30,900  Descending Jacksonville Center
05:24PM 31.0411 -81.4233 North 480 552 31,000  Climbing Jacksonville Center
05:25PM 31.1742 -81.3894 12° North 480 552 31,000  Level Jacksonville Center
05:26PM 31.3053 -81.3436 17° North 480 552 31,000  Level Jacksonville Center
05:27PM 31.4217 -81.3003 18° North 485 558 31,000 -240 Level Jacksonville Center
05:28PM 31.5672 -81.2589 14° North 485 558 30,600 -660 Descending Jacksonville Center
05:29PM 31.7006 -81.2444 North 485 558 29,700 -960 Descending Jacksonville Center
05:30PM 31.8258 -81.2347 North 485 558 28,700 -1,080 Descending Jacksonville Center
05:31PM 31.9656 -81.2200 North 497 572 27,600 -1,080 Descending Jacksonville Center
05:32PM 32.1053 -81.2100 North 497 572 26,600 -1,080 Descending Jacksonville Center
05:33PM 32.2428 -81.1953 North 497 572 25,500 -1,080 Descending Jacksonville Center
05:34PM 32.3806 -81.1828 North 497 572 24,500 -1,200 Descending Jacksonville Center
05:35PM 32.5286 -81.1728 North 486 559 23,100 -2,100 Descending Jacksonville Center
05:36PM 32.6600 -81.1603 North 478 550 20,300 -3,240 Descending Jacksonville Center
05:37PM 32.7725 -81.1483 North 467 537 16,700 -3,600 Descending Jacksonville Center
05:38PM 32.8892 -81.1386 North 438 504 13,100 -2,880 Descending Jacksonville Center
05:39PM 33.0017 -81.1289 North 414 476 11,000 -1,080 Descending Jacksonville Center
05:40PM 33.1103 -81.1194 North 402 463 11,000  Level Jacksonville Center
05:41PM 33.2186 -81.1097 North 397 457 11,100  Climbing Jacksonville Center
05:42PM 33.3167 -81.1031 North 374 430 11,000 -600 Descending Jacksonville Center
05:43PM 33.4061 -81.0961 North 344 396 9,900 -1,440 Descending Jacksonville Center
05:44PM 33.4878 -81.1069 354° North 310 357 8,200 -1,800 Descending Jacksonville Center
05:45PM 33.5675 -81.1278 348° North 294 338 6,300 -1,800 Descending Jacksonville Center
05:46PM 33.6450 -81.1511 346° North 288 331 4,600 -1,680 Descending Jacksonville Center
05:47PM 33.7161 -81.1722 346° North 275 316 3,000 -1,140 Descending Jacksonville Center
05:48PM 33.7936 -81.1931 347° North 275 316 2,400 -360 Descending Jacksonville Center
05:49PM 33.8711 -81.2092 350° North 263 303 2,300 -120 Descending Jacksonville Center
05:51PM 33.9333 -81.1167 328° Northwest  Level FlightAware Approximate
05:58PM 33.9388 -81.1195 328° Northwest  Level Estimated
05:59PM 33.9333 -81.1167 328° Northwest  Level FlightAware Approximate
06:00PM 33.9388 -81.1195 328° Northwest  Level Estimated
06:01PM 33.9333 -81.1167 328° Northwest  Level FlightAware Approximate